»·PEaware :: EJA200 KTEX-KEGE

EJA200 :: KTEX-KEGE

FLIGHT INFORMATION

Flight Status: Arrived
Operator:
Netjets Aviation
More flights by this operator :: More flights under this callsign
Pilot: Ian G. (41107)
Aircraft: Cessna 525C Citation CJ4
(C25C)
More flights by this aircraft type
Origin: KTEX Telluride Regl
United States
Destination: KEGE Eagle Co Regl
United States
More flights between these airports :: More routes between these airports
Route: ETL JNC EKR RLG
File this flight plan on PilotEdge
Remarks: RMK / SIMBRIEF
Altitude:
(Current/Filed)
31,000ft
Speed:
(Current/Filed)
341kts
Departed: 26-Sep-23 11:57 AM
Arrived: 26-Sep-23 12:42 PM
Distance/Time
Traveled:
111nm/0:44
Distance/Time
To Go:
Arrived

Flight Plot

Page will automatically refresh every two minutes.

Flight plan parsing failed; only flown route is shown


Map Options




Map Legend


Flown Route
Filed Route
Departure Airport
Arrival Airport
Navaid (VOR, NDB)
Fix

Horizontal Profiles

Position Reports

Time Latitude Longitude Heading Altitude Ground
Speed
26-Sep-23 11:48 37.954150 -107.902011 13 9051ft 0kts
26-Sep-23 11:49 37.954150 -107.902011 13 9051ft 0kts
26-Sep-23 11:50 37.954150 -107.902011 13 9051ft 0kts
26-Sep-23 11:51 37.954150 -107.902011 13 9051ft 0kts
26-Sep-23 11:52 37.954150 -107.902011 13 9051ft 0kts
26-Sep-23 11:53 37.954150 -107.902011 13 9051ft 0kts
26-Sep-23 11:54 37.953169 -107.900447 105 9052ft 12kts
26-Sep-23 11:55 37.951903 -107.896718 197 9070ft 9kts
26-Sep-23 11:56 37.957162 -107.924441 284 9908ft 188kts
26-Sep-23 11:57 37.977739 -108.003646 285 12615ft 282kts
26-Sep-23 11:58 38.002176 -108.103034 284 16082ft 302kts
26-Sep-23 11:59 38.027787 -108.207513 286 19267ft 317kts
26-Sep-23 12:00 38.088517 -108.283901 336 22121ft 335kts
26-Sep-23 12:01 38.178432 -108.330043 336 24645ft 348kts
26-Sep-23 12:02 38.268936 -108.376961 336 27062ft 361kts
26-Sep-23 12:03 38.370529 -108.429786 337 27117ft 421kts
26-Sep-23 12:04 38.478462 -108.486141 337 27111ft 416kts
26-Sep-23 12:06 38.586403 -108.542633 337 27114ft 426kts
26-Sep-23 12:07 38.697058 -108.600782 337 27113ft 434kts
26-Sep-23 12:08 38.811567 -108.645152 4 27113ft 439kts
26-Sep-23 12:09 38.925420 -108.586685 22 27180ft 442kts
26-Sep-23 12:10 39.038009 -108.522709 22 27249ft 443kts
26-Sep-23 12:11 39.150604 -108.458336 23 27249ft 443kts
26-Sep-23 12:12 39.263540 -108.393467 23 26871ft 440kts
26-Sep-23 12:13 39.372745 -108.330540 22 25847ft 423kts
26-Sep-23 12:14 39.479153 -108.269023 22 24889ft 416kts
26-Sep-23 12:15 39.584545 -108.207870 23 23992ft 414kts
26-Sep-23 12:16 39.689645 -108.146654 22 23012ft 414kts
26-Sep-23 12:17 39.795405 -108.084807 23 21678ft 421kts
26-Sep-23 12:18 39.901333 -108.022736 24 20321ft 406kts
26-Sep-23 12:19 40.001993 -107.963533 24 18989ft 389kts
26-Sep-23 12:20 40.064980 -107.862989 90 17447ft 375kts
26-Sep-23 12:21 40.059886 -107.728738 94 15954ft 354kts
26-Sep-23 12:22 40.055120 -107.606588 95 14910ft 317kts
26-Sep-23 12:23 40.050728 -107.497856 96 14842ft 287kts
26-Sep-23 12:24 40.046413 -107.394993 95 14820ft 295kts
26-Sep-23 12:25 40.041658 -107.282163 94 14816ft 313kts
26-Sep-23 12:26 40.036656 -107.166848 94 14793ft 320kts
26-Sep-23 12:27 40.031582 -107.052104 94 14793ft 304kts
26-Sep-23 12:28 40.026828 -106.946869 94 14782ft 282kts
26-Sep-23 12:29 40.022091 -106.844473 94 14793ft 288kts
26-Sep-23 12:29 40.017947 -106.756315 94 14794ft 294kts
26-Sep-23 12:31 40.011903 -106.630544 94 14789ft 300kts
26-Sep-23 12:32 40.006605 -106.521978 95 14792ft 299kts
26-Sep-23 12:33 39.949557 -106.465183 192 14794ft 288kts
26-Sep-23 12:34 39.873437 -106.497057 199 14812ft 278kts
26-Sep-23 12:34 39.814570 -106.521706 199 14794ft 260kts
26-Sep-23 12:36 39.734245 -106.555444 199 14157ft 271kts
26-Sep-23 12:37 39.685026 -106.622256 260 12078ft 274kts
26-Sep-23 12:38 39.672081 -106.713323 260 10178ft 249kts
26-Sep-23 12:38 39.662509 -106.777349 259 9193ft 192kts
26-Sep-23 12:39 39.653755 -106.835506 260 7916ft 147kts
26-Sep-23 12:40 39.646518 -106.881542 262 6947ft 118kts
26-Sep-23 12:42 39.641836 -106.915650 126 6475ft 4kts

Navigation Log

Ident Type
Flight plan parsing failed, navigation log unavailable